Time;durP1;ratioP1;P1;durP2;ratioP2;P2;SDS_P1;SDS_P2;PMS_P1;PMS_P2;Temp;Humidity;BMP_temperature;BMP_pressure;BME280_temperature;BME280_humidity;BME280_pressure;Samples;Min_cycle;Max_cycle;Signal;HPM_P1;HPM_P2
2023/07/02 00:00:29;;;;;;;21.92;7.13;;;15.10;99.90;;;;;;5060471;28;20041;-58
2023/07/02 00:02:54;;;;;;;23.48;6.82;;;15.10;99.90;;;;;;5066359;28;20104;-57
2023/07/02 00:05:20;;;;;;;20.95;7.05;;;15.10;99.90;;;;;;5070826;28;20056;-57
2023/07/02 00:07:46;;;;;;;25.38;6.97;;;15.10;99.90;;;;;;5067110;28;20068;-58
2023/07/02 00:10:11;;;;;;;20.88;7.13;;;15.10;99.90;;;;;;5060067;28;20045;-58
2023/07/02 00:12:37;;;;;;;18.27;7.20;;;15.10;99.90;;;;;;5059728;28;20029;-57
2023/07/02 00:15:03;;;;;;;18.75;7.43;;;15.10;99.90;;;;;;5059568;28;20037;-57
2023/07/02 00:17:29;;;;;;;19.42;7.10;;;15.20;99.90;;;;;;5060207;28;20185;-57
2023/07/02 00:19:55;;;;;;;18.13;6.38;;;15.10;99.90;;;;;;5058739;28;20057;-58
2023/07/02 00:22:21;;;;;;;20.50;7.07;;;15.10;99.90;;;;;;5060212;28;20048;-58
2023/07/02 00:24:47;;;;;;;21.52;7.95;;;15.10;99.90;;;;;;5058685;28;20068;-58
2023/07/02 00:27:13;;;;;;;21.30;7.10;;;15.10;99.90;;;;;;5059712;28;20053;-58
2023/07/02 00:29:38;;;;;;;18.77;7.18;;;15.20;99.90;;;;;;5059173;28;20085;-57
2023/07/02 00:32:05;;;;;;;20.77;7.50;;;15.10;99.90;;;;;;5059367;28;20063;-58
2023/07/02 00:34:30;;;;;;;18.33;7.30;;;15.10;99.90;;;;;;5059577;28;20057;-57
2023/07/02 00:36:56;;;;;;;20.10;7.32;;;15.10;99.90;;;;;;5058507;28;20041;-58
2023/07/02 00:39:22;;;;;;;22.33;7.55;;;15.00;99.90;;;;;;5063648;28;20091;-58
2023/07/02 00:41:47;;;;;;;20.92;7.55;;;15.00;99.90;;;;;;5078398;28;20060;-58
2023/07/02 00:44:13;;;;;;;23.98;7.57;;;15.00;99.90;;;;;;5079915;28;20037;-58
2023/07/02 00:46:39;;;;;;;20.23;7.80;;;15.00;99.90;;;;;;5078776;28;20064;-57
2023/07/02 00:49:05;;;;;;;23.45;7.75;;;14.90;99.90;;;;;;5078164;28;20041;-57
2023/07/02 00:51:31;;;;;;;18.75;7.82;;;14.90;99.90;;;;;;5079496;28;20060;-57
2023/07/02 00:53:58;;;;;;;19.95;7.07;;;14.90;99.90;;;;;;5078643;28;20075;-57
2023/07/02 00:56:25;;;;;;;18.73;6.63;;;14.80;99.90;;;;;;5079435;28;20055;-57
2023/07/02 00:58:54;;;;;;;22.52;7.78;;;14.80;99.90;;;;;;5077983;28;20130;-58
2023/07/02 01:01:25;;;;;;;22.25;7.05;;;14.80;99.90;;;;;;5077904;28;20056;-58
2023/07/02 01:03:59;;;;;;;21.95;7.28;;;14.80;99.90;;;;;;5078351;28;20428;-57
2023/07/02 01:06:29;;;;;;;20.48;7.53;;;14.80;99.90;;;;;;5076683;28;20063;-57
2023/07/02 01:08:57;;;;;;;30.42;8.20;;;14.80;99.90;;;;;;5079315;28;20445;-57
2023/07/02 01:11:36;;;;;;;20.30;7.22;;;14.80;99.90;;;;;;5077850;28;20078;-57
2023/07/02 01:14:26;;;;;;;22.58;7.72;;;14.80;99.90;;;;;;5079313;28;20537;-58
2023/07/02 01:16:54;;;;;;;21.20;7.50;;;14.80;99.90;;;;;;5072176;28;20086;-57
2023/07/02 01:19:26;;;;;;;21.45;7.43;;;14.80;99.90;;;;;;5078348;28;20048;-57
2023/07/02 01:21:52;;;;;;;21.30;7.68;;;14.70;99.90;;;;;;5077565;28;20056;-57
2023/07/02 01:24:18;;;;;;;20.70;7.60;;;14.70;99.90;;;;;;5077651;28;20052;-58
2023/07/02 01:26:45;;;;;;;27.05;8.93;;;14.70;99.90;;;;;;5078791;28;20066;-58
2023/07/02 01:29:18;;;;;;;23.30;8.32;;;14.60;99.90;;;;;;5077516;28;20041;-58
2023/07/02 01:31:44;;;;;;;25.10;8.25;;;14.60;99.90;;;;;;5078546;28;20052;-57
2023/07/02 01:34:10;;;;;;;29.70;9.15;;;14.60;99.90;;;;;;5078387;28;20067;-57
2023/07/02 01:36:36;;;;;;;26.38;9.10;;;14.50;99.90;;;;;;5076521;28;20488;-58
2023/07/02 01:39:03;;;;;;;21.10;7.47;;;14.40;99.90;;;;;;5078689;28;20037;-57
2023/07/02 01:41:29;;;;;;;24.27;8.38;;;14.40;99.90;;;;;;5077157;28;20066;-57
2023/07/02 01:43:55;;;;;;;24.23;7.55;;;14.40;99.90;;;;;;5078920;28;20046;-57
2023/07/02 01:46:21;;;;;;;20.85;7.63;;;14.40;99.90;;;;;;5077363;28;20048;-57
2023/07/02 01:48:46;;;;;;;29.10;8.65;;;14.40;99.90;;;;;;5078589;28;20051;-58
2023/07/02 01:51:13;;;;;;;19.73;7.55;;;14.40;99.90;;;;;;5077963;28;20049;-57
2023/07/02 01:53:39;;;;;;;24.85;8.55;;;14.40;99.90;;;;;;5077715;28;20111;-58
2023/07/02 01:56:05;;;;;;;23.88;8.10;;;14.40;99.90;;;;;;5078517;28;20047;-57
2023/07/02 01:58:31;;;;;;;28.23;8.18;;;14.40;99.90;;;;;;5077116;28;20132;-57
2023/07/02 02:00:56;;;;;;;23.33;7.82;;;14.40;99.90;;;;;;5069350;28;20051;-57
2023/07/02 02:03:23;;;;;;;28.33;9.63;;;14.40;99.90;;;;;;5061095;28;20524;-57
2023/07/02 02:05:48;;;;;;;24.60;8.20;;;14.40;99.90;;;;;;5074209;28;20045;-58
2023/07/02 02:08:14;;;;;;;26.13;8.07;;;14.20;99.90;;;;;;5057397;28;20124;-57
2023/07/02 02:10:40;;;;;;;25.52;8.55;;;14.20;99.90;;;;;;5057963;28;20033;-57
2023/07/02 02:13:05;;;;;;;27.13;9.35;;;14.10;99.90;;;;;;5057058;28;20034;-57
2023/07/02 02:15:31;;;;;;;21.67;7.70;;;14.00;99.90;;;;;;5057148;28;20033;-58
2023/07/02 02:17:57;;;;;;;20.10;8.68;;;14.10;99.90;;;;;;5058344;28;20120;-58
2023/07/02 02:20:22;;;;;;;32.42;8.90;;;14.00;99.90;;;;;;5056822;28;20034;-58
2023/07/02 02:22:48;;;;;;;29.73;8.25;;;14.00;99.90;;;;;;5056393;28;20048;-55
2023/07/02 02:25:14;;;;;;;25.23;8.45;;;13.90;99.90;;;;;;5057669;28;20065;-57
2023/07/02 02:27:39;;;;;;;22.25;8.10;;;13.90;99.90;;;;;;5077768;28;20143;-58
2023/07/02 02:30:06;;;;;;;20.50;8.75;;;13.90;99.90;;;;;;5078262;28;20040;-57
2023/07/02 02:32:32;;;;;;;26.20;9.73;;;14.00;99.90;;;;;;5077001;28;20427;-57
2023/07/02 02:34:58;;;;;;;24.33;8.25;;;14.00;99.90;;;;;;5078151;28;20140;-58
2023/07/02 02:37:23;;;;;;;25.33;8.35;;;13.90;99.90;;;;;;5076020;28;20045;-57
2023/07/02 02:39:50;;;;;;;22.10;7.90;;;13.90;99.90;;;;;;5078081;28;20076;-58
2023/07/02 02:42:16;;;;;;;29.38;8.30;;;13.90;99.90;;;;;;5077074;28;20067;-56
2023/07/02 02:44:41;;;;;;;21.42;8.43;;;13.90;99.90;;;;;;5077868;28;20120;-57
2023/07/02 02:47:07;;;;;;;27.48;8.13;;;13.90;99.90;;;;;;5077780;28;20040;-57
2023/07/02 02:49:33;;;;;;;27.45;9.18;;;13.90;99.90;;;;;;5076869;28;20048;-58
2023/07/02 02:51:58;;;;;;;29.60;8.13;;;13.90;99.90;;;;;;5077929;28;20066;-57
2023/07/02 02:54:24;;;;;;;26.58;8.77;;;14.00;99.90;;;;;;5076351;28;20036;-57
2023/07/02 02:56:50;;;;;;;23.13;8.27;;;13.90;99.90;;;;;;5078124;28;20171;-57
2023/07/02 02:59:15;;;;;;;21.52;8.77;;;13.80;99.90;;;;;;5076715;28;20048;-57
2023/07/02 03:01:41;;;;;;;24.20;8.40;;;13.90;99.90;;;;;;5077751;28;20036;-57
2023/07/02 03:04:08;;;;;;;26.27;8.80;;;13.80;99.90;;;;;;5077691;28;20045;-57
2023/07/02 03:06:34;;;;;;;24.65;8.07;;;13.90;99.90;;;;;;5076584;28;20098;-57
2023/07/02 03:08:59;;;;;;;27.58;8.18;;;13.90;99.90;;;;;;5077961;28;20084;-57
2023/07/02 03:11:25;;;;;;;24.65;9.98;;;13.80;99.90;;;;;;5077174;28;20036;-57
2023/07/02 03:13:51;;;;;;;26.75;8.98;;;13.90;99.90;;;;;;5081599;28;20040;-57
2023/07/02 03:16:16;;;;;;;26.80;8.05;;;13.90;99.90;;;;;;5080093;28;20040;-58
2023/07/02 03:18:42;;;;;;;21.58;8.70;;;13.90;99.90;;;;;;5081189;28;20127;-58
2023/07/02 03:21:09;;;;;;;25.60;7.90;;;13.90;99.90;;;;;;5079393;28;20051;-57
2023/07/02 03:23:35;;;;;;;25.02;8.07;;;13.90;99.90;;;;;;5080665;28;20135;-58
2023/07/02 03:26:01;;;;;;;22.48;8.20;;;14.00;99.90;;;;;;5081253;28;20058;-57
2023/07/02 03:28:26;;;;;;;25.38;8.45;;;14.00;99.90;;;;;;5079936;28;20048;-57
2023/07/02 03:30:52;;;;;;;23.58;8.68;;;14.00;99.90;;;;;;5081436;28;20037;-58
2023/07/02 03:33:17;;;;;;;24.45;7.60;;;14.00;99.90;;;;;;5080008;28;20041;-58
2023/07/02 03:35:43;;;;;;;23.85;7.95;;;13.90;99.90;;;;;;5080585;28;20054;-57
2023/07/02 03:38:09;;;;;;;21.75;7.82;;;14.00;99.90;;;;;;5080238;28;20049;-57
2023/07/02 03:40:35;;;;;;;23.83;8.90;;;13.90;99.90;;;;;;5080165;28;20099;-57
2023/07/02 03:43:00;;;;;;;22.42;7.70;;;14.00;99.90;;;;;;5080898;28;20036;-58
2023/07/02 03:45:26;;;;;;;22.30;7.45;;;14.00;99.90;;;;;;5079629;28;20041;-58
2023/07/02 03:47:52;;;;;;;26.15;8.18;;;14.10;99.90;;;;;;5080959;28;20520;-58
2023/07/02 03:50:18;;;;;;;25.85;7.57;;;14.10;99.90;;;;;;5079375;28;20049;-58
2023/07/02 03:52:43;;;;;;;23.95;7.60;;;14.10;99.90;;;;;;5080805;28;20681;-57
2023/07/02 03:55:09;;;;;;;20.27;7.50;;;14.10;99.90;;;;;;5079815;28;20045;-57
2023/07/02 03:57:35;;;;;;;23.73;7.78;;;14.20;99.90;;;;;;5080455;28;20044;-57
2023/07/02 04:00:00;;;;;;;22.90;8.25;;;14.20;99.90;;;;;;5080609;28;20048;-57
2023/07/02 04:02:26;;;;;;;23.02;7.72;;;14.20;99.90;;;;;;5079540;28;20048;-58
2023/07/02 04:04:52;;;;;;;21.38;7.03;;;14.20;99.90;;;;;;5080505;28;20036;-57
2023/07/02 04:07:17;;;;;;;24.35;8.25;;;14.20;99.90;;;;;;5078558;28;20163;-58
2023/07/02 04:09:43;;;;;;;21.10;7.63;;;14.20;99.90;;;;;;5080463;28;20048;-57
2023/07/02 04:12:09;;;;;;;22.20;7.10;;;14.20;99.90;;;;;;5079314;28;20150;-58
2023/07/02 04:14:35;;;;;;;19.70;8.23;;;14.20;99.90;;;;;;5080099;28;20072;-57
2023/07/02 04:17:03;;;;;;;24.77;7.95;;;14.20;99.90;;;;;;5079947;28;20045;-57
2023/07/02 04:19:29;;;;;;;22.20;6.80;;;14.20;99.90;;;;;;5079109;28;20129;-57
2023/07/02 04:21:54;;;;;;;19.15;6.93;;;14.30;99.90;;;;;;5080197;28;20040;-57
2023/07/02 04:24:20;;;;;;;22.80;6.70;;;14.40;99.90;;;;;;5078539;28;20044;-58
2023/07/02 04:26:46;;;;;;;24.63;8.35;;;14.50;99.90;;;;;;5080224;28;20052;-57
2023/07/02 04:29:11;;;;;;;23.45;7.32;;;14.40;99.90;;;;;;5078815;28;20083;-57
2023/07/02 04:31:37;;;;;;;20.85;7.28;;;14.50;99.90;;;;;;5079914;28;20037;-58
2023/07/02 04:34:05;;;;;;;30.67;8.38;;;14.50;99.90;;;;;;5079465;28;20040;-57
2023/07/02 04:36:31;;;;;;;24.23;7.72;;;14.50;99.90;;;;;;5078922;28;20106;-57
2023/07/02 04:38:56;;;;;;;19.73;6.57;;;14.50;99.90;;;;;;5079935;28;20036;-56
2023/07/02 04:41:22;;;;;;;22.80;7.10;;;14.60;99.90;;;;;;5078393;28;20048;-57
2023/07/02 04:43:48;;;;;;;23.17;6.85;;;14.60;99.90;;;;;;5079903;28;20047;-57
2023/07/02 04:46:14;;;;;;;20.80;7.15;;;14.60;99.90;;;;;;5078605;28;20146;-57
2023/07/02 04:48:39;;;;;;;21.42;6.50;;;14.70;99.90;;;;;;5079466;28;20048;-58
2023/07/02 04:51:05;;;;;;;19.15;6.80;;;14.80;99.90;;;;;;5079114;28;20052;-58
2023/07/02 04:53:31;;;;;;;31.73;8.60;;;14.90;99.90;;;;;;5078812;28;20041;-58
2023/07/02 04:55:57;;;;;;;15.98;5.60;;;14.90;99.90;;;;;;5079574;28;20438;-57
2023/07/02 04:58:23;;;;;;;18.70;7.63;;;15.00;99.90;;;;;;5078255;28;20063;-58
2023/07/02 05:00:48;;;;;;;19.95;6.00;;;15.00;99.90;;;;;;5079638;28;20052;-58
2023/07/02 05:03:14;;;;;;;22.80;7.53;;;15.20;99.90;;;;;;5077747;28;20047;-58
2023/07/02 05:05:40;;;;;;;19.73;6.80;;;15.20;99.90;;;;;;5079415;28;20136;-58
2023/07/02 05:08:06;;;;;;;19.65;5.88;;;15.30;99.90;;;;;;5078268;28;20113;-57
2023/07/02 05:10:32;;;;;;;17.20;4.82;;;15.40;99.90;;;;;;5077430;28;20103;-58
2023/07/02 05:12:57;;;;;;;15.05;5.97;;;15.40;99.90;;;;;;5079259;28;20044;-57
2023/07/02 05:15:24;;;;;;;16.75;4.85;;;15.40;99.90;;;;;;5077925;28;20076;-58
2023/07/02 05:17:50;;;;;;;14.80;5.63;;;15.30;99.90;;;;;;5079000;28;20060;-58
2023/07/02 05:20:15;;;;;;;17.80;5.13;;;15.20;99.90;;;;;;5077539;28;20044;-57
2023/07/02 05:22:41;;;;;;;17.95;6.85;;;15.20;99.90;;;;;;5079004;28;20091;-58
2023/07/02 05:25:07;;;;;;;19.33;5.72;;;15.10;99.90;;;;;;5078150;28;20056;-57
2023/07/02 05:27:33;;;;;;;18.52;5.13;;;15.00;99.90;;;;;;5078588;28;20040;-57
2023/07/02 05:29:59;;;;;;;16.58;5.07;;;15.00;99.90;;;;;;5078881;28;20041;-57
2023/07/02 05:32:25;;;;;;;19.17;5.72;;;15.10;99.90;;;;;;5077555;28;20417;-57
2023/07/02 05:34:50;;;;;;;17.23;6.00;;;15.10;99.90;;;;;;5078375;28;20036;-57
2023/07/02 05:37:16;;;;;;;17.30;6.32;;;15.00;99.90;;;;;;5077030;28;20075;-57
2023/07/02 05:39:42;;;;;;;16.58;6.10;;;15.10;99.90;;;;;;5078469;28;20036;-57
2023/07/02 05:42:08;;;;;;;22.33;6.95;;;15.20;99.90;;;;;;5077590;28;20049;-58
2023/07/02 05:44:33;;;;;;;20.83;6.97;;;15.20;99.90;;;;;;5078357;28;20044;-58
2023/07/02 05:46:59;;;;;;;20.02;6.07;;;15.30;99.90;;;;;;5078152;28;20052;-58
2023/07/02 05:49:26;;;;;;;20.35;5.93;;;15.30;99.90;;;;;;5077760;28;20076;-58
2023/07/02 05:51:52;;;;;;;23.17;6.05;;;15.30;99.90;;;;;;5078750;28;20063;-57
2023/07/02 05:54:17;;;;;;;20.13;6.05;;;15.40;99.90;;;;;;5077123;28;20041;-56
2023/07/02 05:56:43;;;;;;;20.88;6.25;;;15.50;99.90;;;;;;5072336;28;20055;-57
2023/07/02 05:59:09;;;;;;;18.25;5.82;;;15.50;99.90;;;;;;5070319;28;20041;-56
2023/07/02 06:01:34;;;;;;;18.77;5.95;;;15.60;99.90;;;;;;5060971;28;20053;-57
2023/07/02 06:04:00;;;;;;;17.73;6.85;;;15.80;99.90;;;;;;5058151;28;20064;-57
2023/07/02 06:06:26;;;;;;;17.30;6.82;;;15.70;99.90;;;;;;5057181;28;20053;-57
2023/07/02 06:08:51;;;;;;;18.73;6.10;;;15.80;99.90;;;;;;5053966;28;20100;-57
2023/07/02 06:11:17;;;;;;;17.45;5.22;;;15.80;99.90;;;;;;5053857;28;20053;-59
2023/07/02 06:13:43;;;;;;;18.83;5.10;;;16.00;99.90;;;;;;5055184;28;20048;-57
2023/07/02 06:16:09;;;;;;;17.05;5.57;;;16.00;99.90;;;;;;5053336;28;20049;-57
2023/07/02 06:18:35;;;;;;;14.90;5.65;;;16.00;99.90;;;;;;5054692;28;20647;-57
2023/07/02 06:21:00;;;;;;;15.18;5.13;;;16.10;99.90;;;;;;5052683;28;20053;-56
2023/07/02 06:23:26;;;;;;;15.45;4.97;;;16.10;99.90;;;;;;5070396;28;20045;-57
2023/07/02 06:25:55;;;;;;;17.50;4.88;;;16.20;99.90;;;;;;5074164;28;20064;-57
2023/07/02 06:28:20;;;;;;;13.90;4.13;;;16.30;99.90;;;;;;5072836;28;20056;-57
2023/07/02 06:30:46;;;;;;;15.70;4.35;;;16.10;99.90;;;;;;5073956;28;20075;-58
2023/07/02 06:33:12;;;;;;;14.93;4.20;;;16.00;99.90;;;;;;5072817;28;20048;-57
2023/07/02 06:35:37;;;;;;;21.20;5.30;;;16.10;99.90;;;;;;5073891;28;20044;-57
2023/07/02 06:38:03;;;;;;;13.52;4.57;;;16.20;99.90;;;;;;5073714;28;20051;-57
2023/07/02 06:40:29;;;;;;;14.93;3.85;;;16.10;99.90;;;;;;5073947;28;20078;-57
2023/07/02 06:42:55;;;;;;;13.57;4.38;;;16.20;99.90;;;;;;5074496;28;20074;-57
2023/07/02 06:45:20;;;;;;;15.52;4.88;;;16.20;99.90;;;;;;5073294;28;20099;-57
2023/07/02 06:47:46;;;;;;;16.25;5.18;;;16.20;99.90;;;;;;5067161;28;20064;-56
2023/07/02 06:50:11;;;;;;;15.95;4.05;;;16.40;99.90;;;;;;5060156;28;20044;-57
2023/07/02 06:52:37;;;;;;;17.15;3.90;;;16.30;99.90;;;;;;5058694;28;20045;-57
2023/07/02 06:55:04;;;;;;;13.38;3.95;;;16.20;99.90;;;;;;5057260;28;20108;-56
2023/07/02 06:57:29;;;;;;;15.40;4.30;;;16.20;99.90;;;;;;5058035;28;20057;-57
2023/07/02 06:59:59;;;;;;;15.35;4.55;;;16.30;99.90;;;;;;5058223;28;20101;-57
2023/07/02 07:02:25;;;;;;;14.73;3.65;;;16.50;99.90;;;;;;5055880;28;20128;-57
2023/07/02 07:04:50;;;;;;;13.00;3.65;;;16.40;99.90;;;;;;5057138;28;20053;-57
2023/07/02 07:07:16;;;;;;;10.88;4.05;;;16.50;99.90;;;;;;5056048;28;20068;-57
2023/07/02 07:09:42;;;;;;;11.65;3.53;;;16.50;99.90;;;;;;5058273;28;20053;-58
2023/07/02 07:12:08;;;;;;;15.48;3.83;;;16.60;99.90;;;;;;5057147;28;20041;-58
2023/07/02 07:14:33;;;;;;;13.27;3.42;;;16.70;99.90;;;;;;5057573;28;20047;-57
2023/07/02 07:16:59;;;;;;;10.18;3.08;;;16.70;99.90;;;;;;5057864;28;20045;-58
2023/07/02 07:19:25;;;;;;;10.63;3.63;;;16.60;99.90;;;;;;5056728;28;20057;-57
2023/07/02 07:21:50;;;;;;;13.57;3.25;;;16.40;99.90;;;;;;5057997;28;20100;-57
2023/07/02 07:24:16;;;;;;;12.35;3.00;;;16.70;99.90;;;;;;5056344;28;20412;-57
2023/07/02 07:26:41;;;;;;;11.35;3.50;;;16.70;99.90;;;;;;5057853;28;20508;-58
2023/07/02 07:29:07;;;;;;;11.85;3.08;;;16.70;99.90;;;;;;5056698;28;20084;-59
2023/07/02 07:31:33;;;;;;;15.52;3.80;;;16.80;99.90;;;;;;5057084;28;20045;-58
2023/07/02 07:33:58;;;;;;;13.25;3.70;;;16.80;99.90;;;;;;5065561;28;20037;-57
2023/07/02 07:36:24;;;;;;;11.18;3.40;;;17.00;99.90;;;;;;5071170;28;20055;-57
2023/07/02 07:38:50;;;;;;;12.68;3.78;;;16.90;99.90;;;;;;5057640;28;20076;-57
2023/07/02 07:41:15;;;;;;;13.10;3.88;;;16.90;99.90;;;;;;5056177;28;20055;-57
2023/07/02 07:43:41;;;;;;;9.98;3.00;;;16.90;99.90;;;;;;5057223;28;20040;-58
2023/07/02 07:46:07;;;;;;;12.82;3.28;;;17.00;99.90;;;;;;5064149;28;20044;-57
2023/07/02 07:48:32;;;;;;;15.73;4.07;;;17.20;99.90;;;;;;5077028;28;20070;-56
2023/07/02 07:50:58;;;;;;;12.60;3.47;;;17.40;99.90;;;;;;5076585;28;20041;-56
2023/07/02 07:53:25;;;;;;;15.02;4.50;;;17.20;99.90;;;;;;5061219;28;20048;-57
2023/07/02 07:55:51;;;;;;;14.55;3.90;;;17.30;99.90;;;;;;5075049;28;20040;-57
2023/07/02 07:58:16;;;;;;;11.40;3.05;;;17.60;99.90;;;;;;5055414;28;20097;-57
2023/07/02 08:00:42;;;;;;;12.50;3.90;;;17.40;99.90;;;;;;5057288;28;20541;-57
2023/07/02 08:03:09;;;;;;;14.43;3.78;;;17.00;99.90;;;;;;5065269;28;20044;-57
2023/07/02 08:05:35;;;;;;;11.35;3.60;;;17.00;99.90;;;;;;5075029;28;20424;-57
2023/07/02 08:08:00;;;;;;;12.77;3.30;;;16.80;99.90;;;;;;5070678;28;20056;-58
2023/07/02 08:10:27;;;;;;;12.25;3.45;;;16.70;99.90;;;;;;5063113;28;20126;-57
2023/07/02 08:12:53;;;;;;;13.82;3.13;;;16.50;99.90;;;;;;5056800;28;20053;-57
2023/07/02 08:15:19;;;;;;;9.60;2.80;;;16.20;99.90;;;;;;5056132;28;20088;-57
2023/07/02 08:17:44;;;;;;;14.68;3.90;;;15.80;99.90;;;;;;5077039;28;20055;-57
2023/07/02 08:20:11;;;;;;;14.63;4.60;;;15.30;99.90;;;;;;5075095;28;20052;-57
2023/07/02 08:22:41;;;;;;;10.52;3.63;;;15.10;99.90;;;;;;5076639;28;20094;-57
2023/07/02 08:25:07;;;;;;;11.43;3.42;;;15.10;99.90;;;;;;5074594;28;20055;-56
2023/07/02 08:27:33;;;;;;;12.88;3.50;;;15.10;99.90;;;;;;5074564;28;20045;-57
2023/07/02 08:29:59;;;;;;;11.52;3.90;;;15.20;99.90;;;;;;5077005;28;20032;-56
2023/07/02 08:32:24;;;;;;;12.20;3.88;;;15.70;99.90;;;;;;5075143;28;20040;-57
2023/07/02 08:34:51;;;;;;;13.65;3.92;;;16.00;99.90;;;;;;5076781;28;20048;-57
2023/07/02 08:37:18;;;;;;;13.88;4.15;;;16.30;99.90;;;;;;5074805;28;20051;-57
2023/07/02 08:39:43;;;;;;;14.65;4.50;;;16.50;99.90;;;;;;5076659;28;20056;-57
2023/07/02 08:42:09;;;;;;;13.55;3.92;;;16.60;99.90;;;;;;5075273;28;20044;-57
2023/07/02 08:44:35;;;;;;;14.50;4.25;;;16.50;99.90;;;;;;5073669;28;20060;-57
2023/07/02 08:47:01;;;;;;;13.85;4.13;;;16.40;99.90;;;;;;5065142;28;20242;-56
2023/07/02 08:49:27;;;;;;;12.63;3.72;;;16.30;99.90;;;;;;5066875;28;20735;-57
2023/07/02 08:51:53;;;;;;;13.05;4.78;;;16.30;99.90;;;;;;5076064;28;20068;-57
2023/07/02 08:54:19;;;;;;;12.98;4.20;;;16.60;99.90;;;;;;5066196;28;20994;-56
2023/07/02 08:56:46;;;;;;;12.32;3.60;;;16.90;99.90;;;;;;5062202;28;20105;-57
2023/07/02 08:59:13;;;;;;;13.65;4.03;;;17.00;99.90;;;;;;5054979;28;20044;-56
2023/07/02 09:01:49;;;;;;;12.70;3.75;;;17.20;99.90;;;;;;5054871;28;20032;-57
2023/07/02 09:04:25;;;;;;;12.52;3.78;;;16.90;99.90;;;;;;5055500;28;20064;-56
2023/07/02 09:07:03;;;;;;;10.73;3.55;;;17.00;99.90;;;;;;5061326;28;20060;-56
2023/07/02 09:09:29;;;;;;;11.65;3.05;;;17.20;99.90;;;;;;5062340;28;20079;-55
2023/07/02 09:11:55;;;;;;;9.55;3.17;;;17.40;99.90;;;;;;5062551;28;20051;-56
2023/07/02 09:14:38;;;;;;;11.13;2.60;;;17.40;99.90;;;;;;5063927;28;20048;-53
2023/07/02 09:17:09;;;;;;;13.93;3.55;;;17.40;99.90;;;;;;5063973;28;20090;-56
2023/07/02 09:19:36;;;;;;;11.02;2.70;;;17.30;99.90;;;;;;5062018;28;20057;-56
2023/07/02 09:22:02;;;;;;;9.38;2.67;;;17.30;99.90;;;;;;5063987;28;20076;-56
2023/07/02 09:24:30;;;;;;;10.02;3.10;;;17.70;99.90;;;;;;5062807;28;20040;-56
2023/07/02 09:26:58;;;;;;;9.82;2.78;;;17.90;99.90;;;;;;5063247;28;20080;-56
2023/07/02 09:29:31;;;;;;;14.95;2.70;;;17.90;99.90;;;;;;5062515;28;20127;-55
2023/07/02 09:32:07;;;;;;;10.38;3.08;;;17.90;99.90;;;;;;5063000;28;20044;-55
2023/07/02 09:34:37;;;;;;;9.18;3.25;;;17.80;99.90;;;;;;5060319;28;20064;-56
2023/07/02 09:37:05;;;;;;;9.40;2.80;;;17.50;99.90;;;;;;5061776;28;20052;-56
2023/07/02 09:39:33;;;;;;;9.05;2.72;;;17.40;99.90;;;;;;5065188;28;20040;-56
2023/07/02 09:42:02;;;;;;;8.73;2.95;;;18.00;99.90;;;;;;5065015;28;20109;-56
2023/07/02 09:44:29;;;;;;;8.65;2.58;;;18.10;99.80;;;;;;5065238;28;20115;-56
2023/07/02 09:47:06;;;;;;;10.27;2.70;;;18.20;99.90;;;;;;5065544;28;20554;-57
2023/07/02 09:49:39;;;;;;;12.45;3.60;;;17.80;99.90;;;;;;5064900;28;20107;-55
2023/07/02 09:52:07;;;;;;;12.82;3.50;;;17.40;99.90;;;;;;5066406;28;20059;-57
2023/07/02 09:54:33;;;;;;;9.80;3.05;;;17.70;99.90;;;;;;5065541;28;20052;-55
2023/07/02 09:57:00;;;;;;;10.82;3.50;;;17.50;99.90;;;;;;5066250;28;20044;-55
2023/07/02 09:59:26;;;;;;;8.43;2.90;;;17.80;99.90;;;;;;5065976;28;20066;-56
2023/07/02 10:01:53;;;;;;;11.07;2.42;;;18.00;99.90;;;;;;5065670;28;20110;-56
2023/07/02 10:04:20;;;;;;;9.68;3.00;;;18.50;99.70;;;;;;5066643;28;20040;-56
2023/07/02 10:06:55;;;;;;;8.95;2.58;;;18.50;99.40;;;;;;5063699;28;20802;-56
2023/07/02 10:09:33;;;;;;;10.13;2.40;;;18.20;99.50;;;;;;5066694;28;20139;-57
2023/07/02 10:11:59;;;;;;;10.75;2.40;;;18.10;97.60;;;;;;5065431;28;20044;-57
2023/07/02 10:14:25;;;;;;;13.32;3.55;;;17.90;98.60;;;;;;5066276;28;20044;-56
2023/07/02 10:16:52;;;;;;;10.48;2.80;;;18.10;99.90;;;;;;5065485;28;20083;-56
2023/07/02 10:19:18;;;;;;;9.00;3.15;;;18.20;99.90;;;;;;5065517;28;20198;-55
2023/07/02 10:21:49;;;;;;;13.45;3.10;;;18.20;99.90;;;;;;5069437;28;20054;-56
2023/07/02 10:24:17;;;;;;;10.52;2.92;;;18.60;99.90;;;;;;5068521;28;20044;-54
2023/07/02 10:26:56;;;;;;;15.43;3.10;;;18.50;99.20;;;;;;5070206;28;20051;-56
2023/07/02 10:29:26;;;;;;;9.77;3.15;;;18.80;99.90;;;;;;5068817;28;20051;-54
2023/07/02 10:31:53;;;;;;;10.93;3.08;;;18.40;99.90;;;;;;5067084;28;20044;-56
2023/07/02 10:34:49;;;;;;;11.23;2.65;;;18.40;99.90;;;;;;5069368;28;20047;-56
2023/07/02 10:37:14;;;;;;;11.00;2.80;;;18.10;99.70;;;;;;5062274;28;20051;-55
2023/07/02 10:39:40;;;;;;;11.68;3.30;;;18.40;99.90;;;;;;5068865;28;20040;-57
2023/07/02 10:42:07;;;;;;;11.18;3.13;;;18.60;99.90;;;;;;5068664;28;20045;-56
2023/07/02 10:44:33;;;;;;;10.90;3.70;;;18.70;99.90;;;;;;5069500;28;20137;-56
2023/07/02 10:46:59;;;;;;;10.52;2.90;;;18.40;99.90;;;;;;5065701;28;20524;-55
2023/07/02 10:49:30;;;;;;;11.35;3.50;;;18.00;99.90;;;;;;5068182;28;20045;-55
2023/07/02 10:52:00;;;;;;;9.77;2.92;;;18.00;99.90;;;;;;5069105;28;20055;-56
2023/07/02 10:54:25;;;;;;;12.55;3.15;;;18.00;99.90;;;;;;5068344;28;20044;-56
2023/07/02 10:56:57;;;;;;;9.45;3.45;;;18.10;99.90;;;;;;5068526;28;20402;-56
2023/07/02 10:59:26;;;;;;;10.07;3.03;;;18.20;99.90;;;;;;5067762;28;20434;-55
2023/07/02 11:01:51;;;;;;;12.48;2.97;;;18.10;99.90;;;;;;5068506;28;20174;-56
2023/07/02 11:04:17;;;;;;;9.77;2.80;;;18.00;99.60;;;;;;5069602;28;20091;-56
2023/07/02 11:06:43;;;;;;;11.98;2.85;;;18.50;99.90;;;;;;5066602;28;20927;-55
2023/07/02 11:09:21;;;;;;;7.45;2.50;;;18.40;98.70;;;;;;5069566;28;20064;-57
2023/07/02 11:11:58;;;;;;;7.90;2.25;;;18.20;98.60;;;;;;5068401;28;20040;-57
2023/07/02 11:14:32;;;;;;;11.40;2.85;;;18.20;99.30;;;;;;5068784;28;20056;-57
2023/07/02 11:16:59;;;;;;;11.13;2.90;;;18.40;99.70;;;;;;5069466;28;20068;-57
2023/07/02 11:19:25;;;;;;;9.25;2.40;;;18.40;99.80;;;;;;5068103;28;20032;-56
2023/07/02 11:21:53;;;;;;;10.55;3.05;;;18.30;99.10;;;;;;5069335;28;20040;-55
2023/07/02 11:24:36;;;;;;;10.02;2.30;;;17.90;98.60;;;;;;5068013;28;20566;-55
2023/07/02 11:27:05;;;;;;;7.63;2.63;;;17.60;99.30;;;;;;5068743;28;20559;-54
2023/07/02 11:29:33;;;;;;;9.82;2.58;;;17.50;99.90;;;;;;5068987;28;20033;-54
2023/07/02 11:32:05;;;;;;;9.52;2.83;;;17.50;99.90;;;;;;5067046;28;20113;-57
2023/07/02 11:34:31;;;;;;;8.40;2.55;;;17.50;99.90;;;;;;5066548;28;20072;-55
2023/07/02 11:36:57;;;;;;;12.23;2.70;;;17.90;99.90;;;;;;5067105;28;20138;-56
2023/07/02 11:39:22;;;;;;;9.23;2.80;;;18.40;99.90;;;;;;5067606;28;20040;-56
2023/07/02 11:41:50;;;;;;;8.27;2.42;;;18.30;98.90;;;;;;5067141;28;20037;-55
2023/07/02 11:44:16;;;;;;;9.77;2.60;;;18.00;98.30;;;;;;5068107;28;20032;-56
2023/07/02 11:46:41;;;;;;;7.65;2.28;;;17.80;99.10;;;;;;5066816;28;20127;-56
2023/07/02 11:49:10;;;;;;;9.98;2.63;;;17.80;99.50;;;;;;5067052;28;20037;-56
2023/07/02 11:51:40;;;;;;;8.35;2.72;;;17.70;99.40;;;;;;5068276;28;20056;-55
2023/07/02 11:54:06;;;;;;;7.20;2.40;;;17.60;98.90;;;;;;5066886;28;20159;-55
2023/07/02 11:56:32;;;;;;;9.05;2.63;;;17.70;99.60;;;;;;5068409;28;20040;-53
2023/07/02 11:58:58;;;;;;;11.27;2.97;;;17.60;98.90;;;;;;5066361;28;20045;-55
2023/07/02 12:01:24;;;;;;;11.63;2.85;;;17.70;99.00;;;;;;5065109;28;20052;-55
2023/07/02 12:03:49;;;;;;;9.32;3.10;;;18.30;99.50;;;;;;5066338;28;20036;-54
2023/07/02 12:06:15;;;;;;;9.60;2.78;;;18.50;98.70;;;;;;5066742;28;20122;-55
2023/07/02 12:08:41;;;;;;;8.27;2.38;;;18.30;98.80;;;;;;5066885;28;20104;-55
2023/07/02 12:11:07;;;;;;;10.43;2.75;;;18.10;98.20;;;;;;5066541;28;20048;-55
2023/07/02 12:13:33;;;;;;;8.00;2.63;;;18.20;97.10;;;;;;5067782;28;20051;-55
2023/07/02 12:15:59;;;;;;;8.77;2.65;;;18.30;97.20;;;;;;5066911;28;20068;-52
2023/07/02 12:18:25;;;;;;;7.28;2.45;;;18.50;97.50;;;;;;5067690;28;20397;-55
2023/07/02 12:20:50;;;;;;;10.65;3.33;;;18.60;96.80;;;;;;5067113;28;20048;-54
2023/07/02 12:23:16;;;;;;;8.40;2.75;;;18.80;97.10;;;;;;5066795;28;20059;-54
2023/07/02 12:25:42;;;;;;;9.77;2.80;;;18.40;95.90;;;;;;5068118;28;20059;-54
2023/07/02 12:28:07;;;;;;;12.80;4.38;;;18.30;96.80;;;;;;5065826;28;20048;-56
2023/07/02 12:30:33;;;;;;;10.02;2.90;;;18.40;97.10;;;;;;5050025;28;20043;-56
2023/07/02 12:32:59;;;;;;;9.48;2.80;;;18.60;96.60;;;;;;5062478;28;20043;-55
2023/07/02 12:35:24;;;;;;;10.00;3.03;;;18.20;96.90;;;;;;5065460;28;20058;-55